Time;durP1;ratioP1;P1;durP2;ratioP2;P2;SDS_P1;SDS_P2;PMS_P1;PMS_P2;Temp;Humidity;BMP_temperature;BMP_pressure;BME280_temperature;BME280_humidity;BME280_pressure;Samples;Min_cycle;Max_cycle;Signal;HPM_P1;HPM_P2
2023/09/21 00:01:39;;;;;;;11.85;4.87;;;;;;;23.38;50.95;100103.93;2332707;76;50364;-76
2023/09/21 00:04:42;;;;;;;10.85;5.08;;;;;;;23.38;50.82;100099.88;2332455;75;51458;-76
2023/09/21 00:07:46;;;;;;;9.43;5.08;;;;;;;23.38;50.94;100097.18;2306531;76;51103;-76
2023/09/21 00:10:50;;;;;;;7.03;4.83;;;;;;;23.37;50.94;100091.47;2332139;76;50243;-76
2023/09/21 00:13:52;;;;;;;8.33;4.55;;;;;;;23.37;50.96;100084.72;2332177;76;51517;-76
2023/09/21 00:16:54;;;;;;;8.95;4.67;;;;;;;23.37;51.05;100083.36;2300114;76;50657;-77
2023/09/21 00:19:57;;;;;;;8.10;4.45;;;;;;;23.38;50.94;100089.08;2304681;77;51451;-76
2023/09/21 00:22:59;;;;;;;10.85;4.78;;;;;;;23.37;50.91;100082.83;2257610;77;51176;-76
2023/09/21 00:26:03;;;;;;;7.33;4.42;;;;;;;23.37;50.99;100082.02;2283102;77;50225;-76
2023/09/21 00:29:05;;;;;;;8.38;4.87;;;;;;;23.37;50.96;100084.72;2283206;77;51485;-76
2023/09/21 00:32:07;;;;;;;8.03;4.65;;;;;;;23.36;51.03;100079.03;2304725;77;51582;-76
2023/09/21 00:35:10;;;;;;;6.50;4.28;;;;;;;23.38;50.94;100078.28;2282996;76;51452;-76
2023/09/21 00:38:15;;;;;;;7.08;4.47;;;;;;;23.37;51.12;100072.56;2304787;77;51573;-75
2023/09/21 00:41:18;;;;;;;9.48;4.80;;;;;;;23.37;50.98;100079.31;2308914;76;52117;-75
2023/09/21 00:44:20;;;;;;;10.28;4.45;;;;;;;23.37;51.01;100069.33;2309720;76;50718;-76
2023/09/21 00:47:22;;;;;;;6.60;4.45;;;;;;;23.36;51.07;100058.78;2299194;76;52512;-76
2023/09/21 00:50:24;;;;;;;8.88;4.35;;;;;;;23.37;51.20;100063.12;2316613;76;50709;-76
2023/09/21 00:53:29;;;;;;;8.48;5.03;;;;;;;23.38;51.06;100059.38;2316533;76;51349;-76
2023/09/21 00:56:31;;;;;;;7.22;4.50;;;;;;;23.37;51.04;100060.41;2292536;76;52373;-76
2023/09/21 00:59:36;;;;;;;9.63;4.72;;;;;;;23.37;51.07;100066.63;2316787;76;50278;-76
2023/09/21 01:02:38;;;;;;;11.57;4.97;;;;;;;23.37;51.09;100067.98;2316523;76;22301;-76
2023/09/21 01:05:44;;;;;;;9.35;4.37;;;;;;;23.37;51.08;100064.47;2316693;76;51466;-76
2023/09/21 01:08:47;;;;;;;7.08;4.70;;;;;;;23.36;51.08;100064.18;2308679;76;51359;-76
2023/09/21 01:11:49;;;;;;;7.35;4.45;;;;;;;23.36;51.08;100052.03;2287920;76;51586;-76
2023/09/21 01:15:05;;;;;;;8.28;4.62;;;;;;;23.35;51.18;100057.12;2318299;75;51420;-76
2023/09/21 01:18:09;;;;;;;7.80;4.65;;;;;;;23.35;51.18;100046.31;2318746;76;50473;-76
2023/09/21 01:21:13;;;;;;;8.88;4.60;;;;;;;23.36;51.04;100045.28;2245692;76;52298;-76
2023/09/21 01:24:15;;;;;;;7.08;4.15;;;;;;;23.36;51.20;100052.03;2295148;76;51500;-76
2023/09/21 01:27:18;;;;;;;6.60;4.33;;;;;;;23.33;51.07;100046.56;2318521;75;50674;-75
2023/09/21 01:30:20;;;;;;;8.10;4.15;;;;;;;23.34;51.19;100040.63;2304241;76;51375;-76
2023/09/21 01:33:24;;;;;;;9.85;4.50;;;;;;;23.34;51.15;100042.80;2322188;74;51593;-75
2023/09/21 01:36:26;;;;;;;8.93;4.53;;;;;;;23.35;51.19;100035.52;2322353;76;49878;-76
2023/09/21 01:39:29;;;;;;;9.60;4.40;;;;;;;23.35;51.15;100030.12;2333621;76;50224;-75
2023/09/21 01:42:32;;;;;;;7.42;4.20;;;;;;;23.34;51.13;100026.60;2338120;76;49945;-75
2023/09/21 01:45:37;;;;;;;10.13;4.65;;;;;;;23.34;51.22;100028.48;2282879;76;51452;-75
2023/09/21 01:48:39;;;;;;;6.80;3.60;;;;;;;23.35;51.18;100030.12;2321038;76;51545;-75
2023/09/21 01:51:41;;;;;;;6.58;4.03;;;;;;;23.34;51.16;100029.30;2320978;76;50200;-74
2023/09/21 01:54:44;;;;;;;6.20;4.25;;;;;;;23.32;51.20;100025.19;2341873;76;51537;-75
2023/09/21 01:57:48;;;;;;;8.75;4.70;;;;;;;23.33;51.21;100022.80;2342138;76;51479;-75
2023/09/21 02:00:50;;;;;;;9.90;4.00;;;;;;;23.31;51.33;100012.75;2342032;75;50246;-75
2023/09/21 02:03:55;;;;;;;8.18;4.25;;;;;;;23.32;51.19;100020.61;2320758;76;50160;-75
2023/09/21 02:06:56;;;;;;;8.25;4.12;;;;;;;23.33;51.16;100017.41;2342317;75;22403;-76
2023/09/21 02:09:58;;;;;;;8.85;3.55;;;;;;;23.32;51.23;100019.78;2309750;76;51438;-75
2023/09/21 02:13:02;;;;;;;7.42;3.58;;;;;;;23.33;51.20;100012.00;2320754;76;51366;-75
2023/09/21 02:16:05;;;;;;;10.00;4.13;;;;;;;23.32;51.25;100009.80;2321572;76;51480;-75
2023/09/21 02:19:07;;;;;;;7.70;3.92;;;;;;;23.32;51.11;100000.36;2320958;76;50672;-76
2023/09/21 02:22:11;;;;;;;6.00;3.62;;;;;;;23.32;51.19;99998.19;2321165;76;50222;-75
2023/09/21 02:25:13;;;;;;;5.95;3.33;;;;;;;23.32;51.20;99998.19;2322090;76;51686;-76
2023/09/21 02:28:16;;;;;;;8.48;4.12;;;;;;;23.32;51.23;99998.19;2341448;76;50606;-76
2023/09/21 02:31:21;;;;;;;9.08;3.95;;;;;;;23.32;51.13;99999.54;2304746;76;51424;-76
2023/09/21 02:34:22;;;;;;;5.72;3.62;;;;;;;23.33;51.15;99989.06;2318487;76;22409;-74
2023/09/21 02:37:24;;;;;;;5.42;3.50;;;;;;;23.32;51.21;99992.79;2318643;76;51353;-75
2023/09/21 02:40:26;;;;;;;5.78;3.92;;;;;;;23.32;51.12;99986.05;2308467;76;51435;-76
2023/09/21 02:43:29;;;;;;;6.83;3.90;;;;;;;23.31;51.27;99984.41;2304619;76;49849;-74
2023/09/21 02:46:32;;;;;;;5.67;3.47;;;;;;;23.31;51.24;99988.45;2304928;76;51455;-75
2023/09/21 02:49:35;;;;;;;5.80;3.25;;;;;;;23.30;51.20;99982.24;2263036;76;51720;-75
2023/09/21 02:52:38;;;;;;;6.45;3.42;;;;;;;23.29;51.26;99983.81;2318497;76;51452;-77
2023/09/21 02:55:42;;;;;;;5.62;3.17;;;;;;;23.30;51.23;99978.70;2332813;76;51549;-76
2023/09/21 02:58:44;;;;;;;5.53;3.33;;;;;;;23.30;51.24;99980.05;2263400;75;51674;-76
2023/09/21 03:01:47;;;;;;;5.42;3.50;;;;;;;23.29;51.20;99983.28;2332778;76;50258;-76
2023/09/21 03:04:52;;;;;;;10.50;3.20;;;;;;;23.30;51.15;99974.64;2304614;76;50661;-76
2023/09/21 03:07:54;;;;;;;6.45;3.55;;;;;;;23.28;51.22;99971.37;2304790;76;23472;-76
2023/09/21 03:10:56;;;;;;;6.92;3.25;;;;;;;23.29;51.14;99964.92;2310808;76;50611;-76
2023/09/21 03:14:03;;;;;;;4.78;3.47;;;;;;;23.28;51.20;99969.50;2265603;76;51172;-76
2023/09/21 03:17:04;;;;;;;6.10;3.52;;;;;;;23.29;51.13;99973.02;2290430;76;22421;-76
2023/09/21 03:20:13;;;;;;;6.78;3.42;;;;;;;23.28;51.18;99953.83;2318371;76;51496;-76
2023/09/21 03:23:14;;;;;;;6.87;3.50;;;;;;;23.28;51.16;99957.88;2289383;76;23425;-76
2023/09/21 03:26:18;;;;;;;5.35;3.27;;;;;;;23.27;51.24;99954.34;2316719;76;50731;-76
2023/09/21 03:29:20;;;;;;;7.60;3.40;;;;;;;23.28;51.21;99955.19;2290019;76;22509;-76
2023/09/21 03:32:25;;;;;;;6.03;3.12;;;;;;;23.28;51.23;99947.09;2304974;76;50627;-74
2023/09/21 03:35:26;;;;;;;7.50;3.40;;;;;;;23.27;51.23;99935.44;2278409;77;22462;-76
2023/09/21 03:38:29;;;;;;;5.55;3.02;;;;;;;23.26;51.23;99933.27;2275759;75;51127;-74
2023/09/21 03:41:32;;;;;;;5.10;3.20;;;;;;;23.27;51.21;99927.34;2305790;77;50265;-76
2023/09/21 03:44:34;;;;;;;5.67;3.33;;;;;;;23.25;51.25;99926.78;2278113;77;51764;-75
2023/09/21 03:47:37;;;;;;;7.17;3.50;;;;;;;23.26;51.20;99923.83;2278223;77;50608;-75
2023/09/21 03:50:40;;;;;;;5.65;2.87;;;;;;;23.26;51.17;99924.36;2278120;77;51472;-75
2023/09/21 03:53:42;;;;;;;4.12;3.00;;;;;;;23.25;51.25;99923.55;2310404;77;50282;-75
2023/09/21 03:56:45;;;;;;;4.25;3.10;;;;;;;23.25;51.27;99928.94;2278392;77;51516;-75
2023/09/21 03:59:47;;;;;;;5.50;3.10;;;;;;;23.26;51.23;99930.58;2310626;77;51398;-74
2023/09/21 04:02:49;;;;;;;5.00;3.12;;;;;;;23.25;51.25;99928.94;2305093;76;50654;-74
2023/09/21 04:05:51;;;;;;;7.45;3.12;;;;;;;23.24;51.21;99923.23;2305488;76;52272;-75
2023/09/21 04:08:54;;;;;;;4.28;3.00;;;;;;;23.24;51.22;99919.19;2306093;77;51537;-75
2023/09/21 04:11:57;;;;;;;6.92;2.85;;;;;;;23.24;51.20;99912.44;2260933;77;51156;-75
2023/09/21 04:15:00;;;;;;;4.12;2.90;;;;;;;23.24;51.20;99913.78;2284163;76;51461;-75
2023/09/21 04:18:03;;;;;;;5.17;2.87;;;;;;;23.22;51.21;99908.32;2278759;77;50156;-75
2023/09/21 04:21:09;;;;;;;4.60;2.83;;;;;;;23.23;51.21;99914.03;2253518;78;51527;-75
2023/09/21 04:24:14;;;;;;;5.08;3.02;;;;;;;23.22;51.30;99911.02;2283968;76;50372;-75
2023/09/21 04:27:15;;;;;;;4.92;2.62;;;;;;;23.22;51.16;99903.77;2284435;76;22543;-75
2023/09/21 04:30:21;;;;;;;4.60;2.85;;;;;;;23.22;51.20;99901.58;2253886;77;50551;-75
2023/09/21 04:33:23;;;;;;;4.50;2.72;;;;;;;23.22;51.19;99899.72;2285832;76;22823;-75
2023/09/21 04:36:25;;;;;;;4.95;3.25;;;;;;;23.22;51.23;99897.02;2228675;77;51645;-75
2023/09/21 04:39:27;;;;;;;4.62;2.83;;;;;;;23.20;51.24;99904.52;2322475;76;50310;-77
2023/09/21 04:42:30;;;;;;;5.80;2.80;;;;;;;23.23;51.11;99898.66;2298003;76;50344;-76
2023/09/21 04:45:33;;;;;;;10.88;3.30;;;;;;;23.23;51.32;99897.84;2296033;76;50197;-77
2023/09/21 04:48:36;;;;;;;5.22;2.47;;;;;;;23.22;51.56;99902.42;2296288;76;51460;-76
2023/09/21 04:51:38;;;;;;;8.08;2.77;;;;;;;23.24;51.29;99894.89;2297814;76;51164;-78
2023/09/21 04:54:41;;;;;;;7.03;2.72;;;;;;;23.24;51.32;99900.28;2323284;76;50605;-77
2023/09/21 04:57:43;;;;;;;8.63;2.67;;;;;;;23.24;51.58;99901.64;2321632;76;50330;-77
2023/09/21 05:00:46;;;;;;;8.05;3.00;;;;;;;23.23;51.46;99898.66;2255768;76;50900;-77
2023/09/21 05:03:48;;;;;;;9.93;3.05;;;;;;;23.26;51.36;99900.88;2280496;75;50801;-76
2023/09/21 05:06:51;;;;;;;8.10;2.85;;;;;;;23.25;51.61;99895.73;2310495;75;50556;-76
2023/09/21 05:09:53;;;;;;;7.67;3.20;;;;;;;23.25;51.68;99896.55;2285411;76;50959;-78
2023/09/21 05:12:57;;;;;;;8.60;4.30;;;;;;;23.28;50.99;99898.50;2309407;76;51512;-78
2023/09/21 05:16:00;;;;;;;7.12;4.35;;;;;;;23.20;49.88;99892.91;2304258;76;52915;-78
2023/09/21 05:19:02;;;;;;;8.45;4.10;;;;;;;23.09;49.04;99893.16;2313194;75;50584;-79
2023/09/21 05:22:04;;;;;;;8.03;4.00;;;;;;;22.96;48.46;99887.41;2289395;77;50580;-78
2023/09/21 05:25:07;;;;;;;9.68;4.35;;;;;;;22.91;48.71;99893.20;2256352;77;52418;-77
2023/09/21 05:28:09;;;;;;;13.53;4.00;;;;;;;22.86;47.89;99893.88;2295602;76;51389;-77
2023/09/21 05:31:11;;;;;;;10.25;3.75;;;;;;;22.89;48.52;99885.86;2285429;76;50224;-76
2023/09/21 05:34:14;;;;;;;10.43;4.17;;;;;;;22.89;48.90;99889.91;2249458;77;50524;-77
2023/09/21 05:37:16;;;;;;;4.90;3.30;;;;;;;22.91;49.17;99878.36;2289360;76;51402;-77
2023/09/21 05:40:19;;;;;;;7.05;3.60;;;;;;;22.91;49.31;99884.58;2252010;77;51692;-76
2023/09/21 05:43:21;;;;;;;9.08;3.80;;;;;;;22.91;49.35;99881.88;2308546;76;50204;-76
2023/09/21 05:46:23;;;;;;;7.40;3.83;;;;;;;22.91;49.44;99881.06;2294886;76;50207;-77
2023/09/21 05:49:27;;;;;;;8.48;3.75;;;;;;;22.92;49.52;99888.13;2266783;76;51073;-78
2023/09/21 05:52:32;;;;;;;11.38;4.47;;;;;;;22.93;49.74;99886.52;2309573;76;51562;-76
2023/09/21 05:55:33;;;;;;;16.77;4.20;;;;;;;22.97;50.19;99882.36;2325128;76;22285;-75
2023/09/21 05:58:36;;;;;;;8.58;3.52;;;;;;;23.03;50.76;99883.30;2292860;77;50054;-75
2023/09/21 06:01:38;;;;;;;9.10;3.75;;;;;;;23.10;50.31;99877.28;2300046;76;51550;-77
2023/09/21 06:04:41;;;;;;;15.32;3.52;;;;;;;23.07;50.52;99887.20;2310490;75;50929;-77
2023/09/21 06:07:44;;;;;;;8.13;3.35;;;;;;;23.05;50.60;99885.25;2337738;75;50428;-75
2023/09/21 06:10:46;;;;;;;13.45;3.60;;;;;;;23.06;50.66;99885.53;2311476;76;49913;-75
2023/09/21 06:13:49;;;;;;;12.13;3.50;;;;;;;23.05;50.71;99881.20;2284846;76;50774;-76
2023/09/21 06:16:52;;;;;;;9.48;3.95;;;;;;;23.08;50.47;99880.73;2339807;75;49934;-76
2023/09/21 06:19:54;;;;;;;13.50;4.60;;;;;;;23.06;50.84;99887.41;2319381;76;51579;-76
2023/09/21 06:22:56;;;;;;;11.90;3.70;;;;;;;23.04;50.95;99884.43;2287410;76;51438;-77
2023/09/21 06:25:59;;;;;;;11.33;3.50;;;;;;;23.04;51.07;99883.58;2288007;76;51381;-76
2023/09/21 06:29:01;;;;;;;12.45;3.87;;;;;;;23.11;50.82;99872.17;2287794;76;52283;-76
2023/09/21 06:32:07;;;;;;;13.05;3.52;;;;;;;23.19;50.65;99875.88;2309756;76;51446;-76
2023/09/21 06:35:08;;;;;;;18.02;3.75;;;;;;;23.16;50.91;99873.64;2283761;77;22261;-76
2023/09/21 06:38:10;;;;;;;14.78;3.85;;;;;;;23.13;50.91;99875.46;2258622;77;51146;-74
2023/09/21 06:41:13;;;;;;;17.77;4.20;;;;;;;23.19;50.88;99870.47;2309576;76;50275;-76
2023/09/21 06:44:18;;;;;;;13.20;3.77;;;;;;;23.28;50.49;99874.20;2305018;76;51586;-75
2023/09/21 06:47:21;;;;;;;14.03;3.83;;;;;;;23.29;50.80;99869.91;2292024;76;22374;-76
2023/09/21 06:50:23;;;;;;;12.53;4.03;;;;;;;23.32;50.70;99868.62;2306004;76;24628;-77
2023/09/21 06:53:25;;;;;;;9.18;3.72;;;;;;;23.38;50.81;99865.00;2306769;76;51492;-77
2023/09/21 06:56:31;;;;;;;13.05;3.92;;;;;;;23.39;50.80;99862.58;2319261;75;50122;-76
2023/09/21 06:59:38;;;;;;;12.40;3.40;;;;;;;23.35;51.05;99861.39;2319189;76;50298;-77
2023/09/21 07:02:40;;;;;;;11.57;3.80;;;;;;;23.37;51.01;99864.69;2264287;76;52562;-76
2023/09/21 07:05:44;;;;;;;18.37;3.90;;;;;;;23.42;50.91;99859.41;2333444;76;51348;-76
2023/09/21 07:08:47;;;;;;;9.18;3.52;;;;;;;23.45;50.86;99854.88;2319163;75;50252;-76
2023/09/21 07:11:49;;;;;;;7.60;3.60;;;;;;;23.50;50.81;99856.36;2307119;76;51033;-76
2023/09/21 07:14:52;;;;;;;13.60;3.42;;;;;;;23.50;50.82;99855.00;2318898;76;50180;-77
2023/09/21 07:17:55;;;;;;;10.72;3.67;;;;;;;23.53;50.78;99856.41;2296102;76;51486;-77
2023/09/21 07:20:58;;;;;;;8.33;3.10;;;;;;;23.56;50.70;99858.13;2305753;76;50644;-77
2023/09/21 07:24:00;;;;;;;9.60;3.80;;;;;;;23.56;50.67;99854.08;2318915;75;50564;-76
2023/09/21 07:27:02;;;;;;;7.20;3.10;;;;;;;23.56;50.68;99854.08;2305457;76;50322;-76
2023/09/21 07:30:06;;;;;;;7.85;3.40;;;;;;;23.59;50.59;99847.39;2305306;76;50565;-76
2023/09/21 07:33:09;;;;;;;8.78;3.50;;;;;;;23.61;50.52;99854.20;2305528;76;50373;-77
2023/09/21 07:36:13;;;;;;;7.35;3.42;;;;;;;23.62;50.46;99855.83;2279990;76;49561;-77
2023/09/21 07:39:16;;;;;;;10.60;3.42;;;;;;;23.67;50.32;99853.24;2319137;76;51483;-76
2023/09/21 07:42:18;;;;;;;10.05;3.05;;;;;;;23.69;50.27;99859.23;2318973;76;50181;-76
2023/09/21 07:45:22;;;;;;;8.75;3.40;;;;;;;23.69;50.21;99852.48;2300824;76;52298;-76
2023/09/21 07:48:26;;;;;;;8.53;2.92;;;;;;;23.69;50.20;99848.44;2296430;76;50633;-76
2023/09/21 07:51:28;;;;;;;10.65;3.02;;;;;;;23.67;50.20;99846.48;2319719;76;22369;-75
2023/09/21 07:54:31;;;;;;;11.68;3.05;;;;;;;23.64;50.20;99849.67;2333142;75;51463;-77
2023/09/21 07:57:34;;;;;;;8.38;3.02;;;;;;;23.62;50.25;99844.21;2319320;75;50242;-75
2023/09/21 08:00:37;;;;;;;10.72;3.08;;;;;;;23.62;50.29;99842.33;2319206;75;50386;-76
2023/09/21 08:03:39;;;;;;;11.22;3.12;;;;;;;23.64;50.29;99836.70;2333188;75;50630;-76
2023/09/21 08:06:41;;;;;;;7.37;2.70;;;;;;;23.67;50.24;99841.09;2280270;76;52380;-75
2023/09/21 08:09:43;;;;;;;10.13;2.83;;;;;;;23.65;50.26;99825.64;2307805;76;51756;-76
2023/09/21 08:12:45;;;;;;;11.57;3.30;;;;;;;23.66;50.22;99826.45;2317540;75;51384;-76
2023/09/21 08:15:48;;;;;;;7.33;2.80;;;;;;;23.64;50.89;99825.36;2301098;76;50292;-75
2023/09/21 08:18:50;;;;;;;8.08;2.75;;;;;;;23.64;50.45;99824.01;2292574;77;51501;-75
2023/09/21 08:21:52;;;;;;;9.45;3.00;;;;;;;23.64;50.49;99825.36;2286498;77;51351;-75
2023/09/21 08:24:55;;;;;;;7.28;2.80;;;;;;;23.63;50.47;99824.23;2286858;77;52308;-75
2023/09/21 08:27:58;;;;;;;9.43;2.90;;;;;;;23.64;50.45;99819.95;2309974;77;51429;-76
2023/09/21 08:31:00;;;;;;;7.20;3.00;;;;;;;23.62;50.42;99816.67;2284261;77;50220;-76
2023/09/21 08:34:02;;;;;;;7.03;3.10;;;;;;;23.59;50.49;99821.20;2280367;76;51204;-76
2023/09/21 08:37:04;;;;;;;8.33;2.65;;;;;;;23.59;50.44;99821.73;2306630;76;50673;-76
2023/09/21 08:40:08;;;;;;;5.58;2.62;;;;;;;23.60;50.39;99817.96;2306802;76;50410;-73
2023/09/21 08:43:10;;;;;;;6.45;2.62;;;;;;;23.59;50.42;99817.69;2332987;76;51469;-76
2023/09/21 08:46:14;;;;;;;6.53;2.80;;;;;;;23.58;50.39;99820.92;2344965;74;51281;-75
2023/09/21 08:49:16;;;;;;;12.68;2.92;;;;;;;23.57;50.42;99823.31;2348108;75;50306;-75
2023/09/21 08:52:20;;;;;;;5.03;2.60;;;;;;;23.57;50.34;99821.14;2351834;75;50408;-75
2023/09/21 08:55:23;;;;;;;4.92;2.50;;;;;;;23.59;50.28;99819.03;2352773;75;23702;-76
2023/09/21 08:58:27;;;;;;;5.78;2.70;;;;;;;23.58;50.25;99820.92;2319690;75;52620;-77
2023/09/21 09:01:29;;;;;;;7.00;2.47;;;;;;;23.57;50.29;99821.14;2351812;75;50732;-76
2023/09/21 09:04:31;;;;;;;5.62;2.40;;;;;;;23.59;50.24;99821.20;2351625;75;51421;-76
2023/09/21 09:07:39;;;;;;;5.45;2.58;;;;;;;23.56;50.30;99824.38;2351743;75;50576;-77
2023/09/21 09:10:42;;;;;;;5.03;2.72;;;;;;;23.58;50.22;99818.22;2351541;75;50442;-76
2023/09/21 09:13:48;;;;;;;7.87;2.50;;;;;;;23.55;50.24;99820.02;2319127;75;51292;-75
2023/09/21 09:16:50;;;;;;;4.92;2.40;;;;;;;23.56;50.25;99821.67;2326872;75;51503;-75
2023/09/21 09:19:52;;;;;;;5.10;2.30;;;;;;;23.55;50.26;99821.91;2314233;75;50356;-76
2023/09/21 09:22:54;;;;;;;4.72;2.50;;;;;;;23.54;50.29;99825.67;2314652;75;50181;-76
2023/09/21 09:25:56;;;;;;;6.78;3.00;;;;;;;23.53;50.32;99815.41;2308403;77;50591;-76
2023/09/21 09:29:06;;;;;;;6.70;2.58;;;;;;;23.53;50.31;99810.51;2314319;76;51333;-76
2023/09/21 09:32:08;;;;;;;5.12;2.50;;;;;;;23.53;50.28;99806.45;2275225;77;51459;-72
2023/09/21 09:35:17;;;;;;;4.15;2.27;;;;;;;23.52;50.28;99805.64;2271230;77;51462;-76
2023/09/21 09:38:15;;;;;;;5.33;2.70;;;;;;;23.51;50.29;99795.91;2268451;77;21890;-75
2023/09/21 09:41:18;;;;;;;5.30;2.58;;;;;;;23.51;50.31;99791.86;2270019;77;51572;-76
2023/09/21 09:44:26;;;;;;;6.85;2.47;;;;;;;23.50;50.33;99783.98;2270474;76;50627;-77
2023/09/21 09:47:26;;;;;;;4.03;2.45;;;;;;;23.50;50.31;99780.75;2292037;76;22765;-77
2023/09/21 09:50:33;;;;;;;5.37;2.50;;;;;;;23.51;50.27;99795.09;2306038;76;50757;-76
2023/09/21 09:53:37;;;;;;;7.00;2.45;;;;;;;23.63;49.79;99777.79;2305859;77;50583;-75
2023/09/21 09:56:42;;;;;;;6.62;2.50;;;;;;;23.66;49.37;99776.48;2306181;76;52067;-76
2023/09/21 09:59:44;;;;;;;5.95;2.58;;;;;;;23.67;49.16;99772.75;2305953;77;50220;-76
2023/09/21 10:02:47;;;;;;;8.40;2.37;;;;;;;23.68;49.44;99772.50;2283350;77;50038;-76
2023/09/21 10:05:49;;;;;;;7.53;2.50;;;;;;;23.63;50.59;99769.69;2306949;77;51517;-77
2023/09/21 10:08:53;;;;;;;6.42;2.42;;;;;;;23.62;50.41;99766.70;2306842;77;50540;-77
2023/09/21 10:11:56;;;;;;;5.92;2.55;;;;;;;23.60;50.26;99759.90;2261268;77;52624;-75
2023/09/21 10:14:58;;;;;;;5.67;2.55;;;;;;;23.55;50.34;99755.20;2310341;76;50549;-76
2023/09/21 10:18:01;;;;;;;6.90;2.52;;;;;;;23.53;50.37;99755.16;2313287;76;51400;-76
2023/09/21 10:21:13;;;;;;;4.47;2.20;;;;;;;23.51;50.39;99752.70;2320583;76;50367;-77
2023/09/21 10:24:18;;;;;;;4.78;2.60;;;;;;;23.51;50.39;99744.61;2319325;76;22178;-77
2023/09/21 10:27:24;;;;;;;5.03;2.50;;;;;;;23.51;50.47;99741.91;2319363;76;50709;-75
2023/09/21 10:30:26;;;;;;;6.53;2.42;;;;;;;23.53;50.35;99736.25;2319407;76;50747;-76
2023/09/21 10:33:28;;;;;;;4.33;2.45;;;;;;;23.51;50.83;99728.94;2280807;77;50730;-76
2023/09/21 10:36:31;;;;;;;7.90;2.72;;;;;;;23.44;51.07;99720.95;2226720;77;49607;-76
2023/09/21 10:39:33;;;;;;;5.55;2.30;;;;;;;23.43;51.24;99732.83;2289780;77;50594;-75
2023/09/21 10:42:39;;;;;;;5.62;2.50;;;;;;;23.43;51.36;99726.08;2293942;77;51488;-76
2023/09/21 10:45:57;;;;;;;8.73;2.95;;;;;;;23.44;51.29;99718.27;2267540;77;50707;-73
2023/09/21 10:49:13;;;;;;;16.80;2.87;;;;;;;23.52;50.79;99716.53;2279847;77;51504;-75
2023/09/21 10:52:12;;;;;;;29.63;4.08;;;;;;;23.54;51.00;99715.77;2285047;77;22874;-75
2023/09/21 10:55:16;;;;;;;21.05;3.58;;;;;;;23.62;50.94;99717.28;2289629;77;50318;-76
2023/09/21 10:58:21;;;;;;;22.00;4.17;;;;;;;23.64;50.88;99713.28;2289925;77;51508;-75
2023/09/21 11:01:23;;;;;;;28.52;3.90;;;;;;;23.57;51.67;99713.94;2267606;77;22373;-75
2023/09/21 11:04:26;;;;;;;18.55;3.33;;;;;;;23.56;51.91;99707.45;2293699;77;51591;-75
2023/09/21 11:07:29;;;;;;;21.00;3.77;;;;;;;23.56;51.90;99704.20;2289717;77;50797;-76
2023/09/21 11:10:31;;;;;;;19.07;3.30;;;;;;;23.59;52.20;99698.33;2294057;77;50278;-76
2023/09/21 11:13:34;;;;;;;9.88;2.92;;;;;;;23.58;52.28;99703.45;2267111;77;51531;-76
2023/09/21 11:16:36;;;;;;;22.98;3.67;;;;;;;23.57;52.36;99703.14;2222368;77;52380;-77
2023/09/21 11:19:42;;;;;;;11.97;3.75;;;;;;;23.62;52.83;99701.08;2286823;77;51645;-77
2023/09/21 11:22:44;;;;;;;16.50;3.42;;;;;;;23.72;51.93;99693.72;2289753;77;51299;-76
2023/09/21 11:25:50;;;;;;;9.95;3.00;;;;;;;23.81;51.43;99689.58;2289699;77;50203;-77
2023/09/21 11:29:00;;;;;;;;;;;;;;;23.84;50.68;99690.45;2270135;77;50233;-75
2023/09/21 11:32:00;;;;;;;8.28;2.72;;;;;;;23.84;49.90;99682.34;2288478;77;22335;-76
2023/09/21 11:35:02;;;;;;;6.28;2.72;;;;;;;23.85;49.35;99684.81;2242091;77;51659;-76
2023/09/21 11:38:04;;;;;;;5.95;2.70;;;;;;;23.89;49.08;99679.73;2267075;77;50216;-75
2023/09/21 11:41:07;;;;;;;5.75;2.40;;;;;;;23.87;48.86;99681.88;2294045;77;50532;-75
2023/09/21 11:44:09;;;;;;;5.20;2.37;;;;;;;23.89;48.71;99668.92;2266947;77;50389;-76
2023/09/21 11:47:13;;;;;;;3.33;2.33;;;;;;;23.92;48.46;99668.47;2266303;77;51554;-76
2023/09/21 11:50:25;;;;;;;5.47;2.50;;;;;;;23.91;48.39;99660.05;2263275;77;50107;-76
2023/09/21 11:53:30;;;;;;;3.12;2.00;;;;;;;23.94;48.08;99652.00;2289054;77;50372;-75
2023/09/21 11:56:32;;;;;;;5.40;2.40;;;;;;;23.95;47.72;99642.31;2289921;77;22357;-76
2023/09/21 11:59:44;;;;;;;4.62;2.20;;;;;;;23.97;47.37;99638.84;2267282;77;50776;-75
2023/09/21 12:02:43;;;;;;;3.37;2.00;;;;;;;23.94;46.93;99632.55;2288003;77;22233;-76
2023/09/21 12:05:45;;;;;;;4.75;2.40;;;;;;;24.07;46.54;99635.47;2289702;77;49958;-77
2023/09/21 12:08:49;;;;;;;4.62;2.35;;;;;;;24.05;46.56;99633.03;2267112;77;51429;-76
2023/09/21 12:11:54;;;;;;;6.08;2.83;;;;;;;24.02;46.10;99627.27;2289726;77;50639;-76
2023/09/21 12:14:55;;;;;;;6.28;2.67;;;;;;;24.02;46.13;99628.12;2289738;77;22713;-76
2023/09/21 12:17:57;;;;;;;5.97;2.40;;;;;;;24.06;45.75;99617.09;2286810;77;51410;-76
2023/09/21 12:21:00;;;;;;;5.92;2.77;;;;;;;24.10;46.38;99608.80;2289675;77;50245;-76
2023/09/21 12:24:02;;;;;;;5.53;2.00;;;;;;;24.16;45.86;99610.23;2267815;77;52636;-76
2023/09/21 12:27:06;;;;;;;3.98;2.17;;;;;;;24.16;45.74;99596.72;2293745;77;50293;-76
2023/09/21 12:30:17;;;;;;;3.75;2.22;;;;;;;24.11;46.08;99602.84;2266918;77;23166;-77
2023/09/21 12:33:15;;;;;;;8.03;2.33;;;;;;;24.09;45.86;99592.81;2267431;76;22397;-76
2023/09/21 12:36:18;;;;;;;5.10;2.30;;;;;;;24.19;45.76;99592.16;2318507;76;50256;-76
2023/09/21 12:39:24;;;;;;;7.00;2.37;;;;;;;24.11;45.66;99588.80;2291418;76;50607;-77
2023/09/21 12:42:24;;;;;;;4.58;2.50;;;;;;;24.09;45.97;99592.27;2291130;76;22346;-76
2023/09/21 12:45:26;;;;;;;5.78;2.30;;;;;;;24.10;45.82;99579.06;2291289;76;50249;-77
2023/09/21 12:48:28;;;;;;;6.22;2.70;;;;;;;24.12;45.46;99585.05;2269743;76;51590;-76
2023/09/21 12:51:32;;;;;;;2.92;2.42;;;;;;;24.18;45.10;99577.02;2276109;77;50178;-75
2023/09/21 12:54:34;;;;;;;5.15;2.60;;;;;;;24.21;45.20;99565.71;2297921;76;50431;-76
2023/09/21 12:57:37;;;;;;;3.12;2.10;;;;;;;24.17;45.32;99568.07;2276213;77;50561;-75
2023/09/21 13:00:40;;;;;;;3.17;2.45;;;;;;;24.19;45.33;99563.78;2298303;76;51510;-75
2023/09/21 13:03:42;;;;;;;4.85;2.08;;;;;;;24.20;44.72;99561.35;2276162;76;52380;-76
2023/09/21 13:06:44;;;;;;;2.47;2.20;;;;;;;24.26;44.48;99549.57;2275739;77;51425;-75
2023/09/21 13:09:47;;;;;;;5.70;2.67;;;;;;;24.28;44.41;99552.31;2286631;76;51367;-75
2023/09/21 13:12:49;;;;;;;5.40;2.20;;;;;;;24.35;43.64;99537.25;2292787;76;51437;-75
2023/09/21 13:15:51;;;;;;;8.90;2.40;;;;;;;24.39;43.39;99535.70;2317309;76;51542;-76
2023/09/21 13:18:53;;;;;;;9.85;2.95;;;;;;;24.30;43.43;99539.88;2313293;76;51367;-76
2023/09/21 13:21:56;;;;;;;5.17;2.58;;;;;;;24.30;43.74;99531.77;2276843;76;51424;-76
2023/09/21 13:24:58;;;;;;;4.00;2.40;;;;;;;24.34;42.87;99536.98;2302267;77;50554;-77
2023/09/21 13:28:00;;;;;;;5.28;2.08;;;;;;;24.31;42.88;99531.53;2276781;76;52315;-76
2023/09/21 13:31:04;;;;;;;4.05;2.00;;;;;;;24.40;42.35;99527.86;2276828;77;51358;-76
2023/09/21 13:34:06;;;;;;;4.87;2.50;;;;;;;24.44;42.36;99525.50;2300066;76;50415;-77
2023/09/21 13:37:08;;;;;;;4.65;2.33;;;;;;;24.43;42.75;99526.55;2281860;75;51147;-77
2023/09/21 13:40:11;;;;;;;4.55;2.65;;;;;;;24.50;43.00;99527.22;2280129;77;50336;-76
2023/09/21 13:43:14;;;;;;;5.10;2.10;;;;;;;24.48;43.14;99519.89;2296977;76;50581;-76
2023/09/21 13:46:17;;;;;;;3.55;2.20;;;;;;;24.44;43.76;99520.09;2272105;77;50214;-76
2023/09/21 13:49:20;;;;;;;8.30;2.37;;;;;;;24.49;43.23;99521.00;2297339;76;51547;-75
2023/09/21 13:52:23;;;;;;;3.50;2.10;;;;;;;24.42;43.54;99509.52;2302882;76;50209;-76
2023/09/21 13:55:26;;;;;;;4.25;2.30;;;;;;;24.44;43.07;99506.03;2297268;76;50048;-77
2023/09/21 13:58:28;;;;;;;3.95;2.42;;;;;;;24.53;42.75;99504.58;2303057;76;49947;-76
2023/09/21 14:01:30;;;;;;;7.97;2.30;;;;;;;24.53;42.32;99501.87;2246929;76;49550;-76
2023/09/21 14:04:32;;;;;;;4.05;2.42;;;;;;;24.54;42.20;99497.27;2308524;76;50218;-76
2023/09/21 14:07:35;;;;;;;3.15;2.00;;;;;;;24.54;41.98;99500.78;2313079;75;50607;-76
2023/09/21 14:10:38;;;;;;;5.03;2.50;;;;;;;24.59;42.42;99497.87;2308167;76;49949;-77
2023/09/21 14:13:41;;;;;;;2.75;2.00;;;;;;;24.64;42.67;99506.06;2307729;75;50201;-76
2023/09/21 14:16:43;;;;;;;5.45;2.30;;;;;;;24.65;43.00;99488.75;2281088;77;52293;-75
2023/09/21 14:19:45;;;;;;;4.42;2.35;;;;;;;24.66;42.61;99491.72;2308734;77;51472;-76